Wichita Mid-Continent, KS

8:55 AM CDT on August 29, 2014 (GMT -0500)
Wichita Mid-Continent | Change Station
CLOSE
Current Station
Airport
Location: Wichita,
Elevation: 1332 ft
Nearby Weather Stations

Elev 1332 ft 37.65 °N, 97.43 °W | Updated 1 hour ago

Mostly Cloudy
Mostly Cloudy
69 °F
Feels Like 69 °F
N
4
Wind Variable Wind from SSW

Today
High -- | Low -- °F
--% Chance of Precip.
Yesterday
High -- | Low -- °F
Precip. -- in
6:57 AM 8:03 PM
Waxing Crescent, 14% visible
Pressure 29.86 in
Visibility 10.0 miles
Clouds Few 5000 ft
Mostly Cloudy 11000 ft
Mostly Cloudy 20000 ft
Dew Point 65 °F
Humidity 87%
Rainfall 0.00 in
Snow Depth Not available.
UV 0 out of 12
Pollen 9.20 out of 12
Air Quality Not available.
Flu Activity Not available.
METAR KICT 291253Z 21003KT 10SM FEW050 BKN110 BKN200 21/18 A2989 RMK AO2 RAE1155 SLP109 P0000 T02060183

More Conditions Fewer Conditions

Pressure 29.86 in
Visibility 10.0 miles
Clouds Few 5000 ft
Mostly Cloudy 11000 ft
Mostly Cloudy 20000 ft
Dew Point 65 °F
Humidity 87%
Rainfall 0.00 in
Snow Depth Not available.
UV 0 out of 12
Pollen 9.20 out of 12
Air Quality Not available.
Flu Activity Not available.
METAR KICT 291253Z 21003KT 10SM FEW050 BKN110 BKN200 21/18 A2989 RMK AO2 RAE1155 SLP109 P0000 T02060183

More Conditions Fewer Conditions

10-Day Weather Forecast

Almanac

Astronomy

Aug. 29, 2014 Rise Set
Actual Time 6:57 AM CDT 8:03 PM CDT
Civil Twilight 6:30 AM CDT 8:30 PM CDT
Nautical Twilight 5:58 AM CDT 9:02 PM CDT
Astronomical Twilight 5:24 AM CDT 9:35 PM CDT
Moon 10:43 AM CDT 10:07 PM CDT
Length of Visible Light 13h 59m
Length of Day
13h 05m
Tomorrow will be 2m 18s shorter.
Waxing Crescent, 14% of the Moon is Illuminated
Today
Waxing Crescent
Sep 2
First Quarter
Sep 8
Full
Sep 15
Last Quarter
Sep 24
New

Today's Extremes

State Highs State Lows

Community

WunderPhotos

Upload Photos

1,748,235 photos uploaded!

Nearby

Snow Depth

Station Depth Elevation
No new snow has been reported.

Earthquake Activity

City Distance Mag. Time & Date
Perry, Oklahoma 99 miles 3.0 4:52 AM CDT
2014-08-29
Stillwater, Oklahoma 108 miles 3.1 10:44 AM CDT
2014-08-27
Anthony, Kansas 47 miles 2.8 10:11 AM CDT
2014-08-27
Minimum magnitude displayed is 2.5.

Coastal Water Temperatures

Place Temperature
No Stations Reporting

Nearby Weather Stations